Terminal Aerodrome Forecast
Issued by NWS Jackson, KY

Home | Current Version | Previous Version | Text Only | Print | Product List | Glossary On
Versions: 1 2 3 4 5 6 7 8 9 10 11 12 13 14 15
917
FTUS43 KJKL 021120
TAFLOZ
TAF
KLOZ 021120Z 0212/0312 00000KT P6SM FEW250
     FM021500 26008G14KT P6SM FEW040 FEW250
     FM030000 31003KT P6SM FEW035 SCT150=

USA.gov is the U.S. government's official web portal to all federal, state and local government web resources and services.